Detall de PIREP

Printer-friendly versionPDF version

[2015/08/31 06:00:00]
Flight IATA:CT3307
Pilot Number:042
Company ICAO:CAT
Aircraft Type:B752/E
PAX:0
Aircraft Registration:CARGO
Departing Airport: HECA
Destination Airport: LEZG
Alternate Airport:LEBL
Online: VATSIM
Route:CVO A1 METRU UP868 ARLOS UP167 GINOX UM601 BCN UN725 LOBAR
Flight Level:F360
No Slew and time accel
No pause
Crash detect
Detect pilot in Cockpit between each 30 and 45 minutes
06:00 Zero fuel Weight: 142610 Lbs, Fuel Weight: 75090 Lbs
06:00 VATSIM:HECA 310530Z 00000KT 6000 SCT025 25/22 Q1012 NOSIG
06:00 VATSIM:LEZG 310530Z VRB02KT 9999 FEW050 20/19 Q1016
06:03 Parking Brakes off
06:06 Take-off
06:06 Take off Weight: 216626 Lbs
06:06 Wind: 329º @ 000 Knots Heading: 229º
06:06 POS N30º 07´ 41´´ E031º 23´ 31´´
06:06 Gear Up: 186 Knots
06:06 Flaps:3 at 186 Knots
06:07 Flaps:2 at 228 Knots
06:07 Flaps:1 at 230 Knots
06:07 Flaps:0 at 230 Knots
06:21 Wind:261º@029 Knots Heading: 281º Ground Speed: 436 Knots Altitude 35777 ft
06:21 TOC
06:21 Fuel Weight: 69372 Lb
06:36 Wind:256º@023 Knots Heading: 304º Ground Speed: 456 Knots Altitude 36010 ft
06:51 Wind:215º@020 Knots Heading: 301º Ground Speed: 469 Knots Altitude 36017 ft
07:06 Wind:175º@017 Knots Heading: 287º Ground Speed: 478 Knots Altitude 36017 ft
07:21 Wind:150º@026 Knots Heading: 289º Ground Speed: 490 Knots Altitude 36085 ft
07:36 Wind:139º@031 Knots Heading: 298º Ground Speed: 498 Knots Altitude 36085 ft
07:51 Wind:134º@033 Knots Heading: 299º Ground Speed: 497 Knots Altitude 36128 ft
08:06 Wind:130º@037 Knots Heading: 298º Ground Speed: 502 Knots Altitude 36138 ft
08:21 Wind:141º@037 Knots Heading: 298º Ground Speed: 499 Knots Altitude 36131 ft
08:36 Wind:144º@020 Knots Heading: 297º Ground Speed: 485 Knots Altitude 36138 ft
08:51 Wind:145º@009Knots Heading: 303º Ground Speed: 474 Knots Altitude 36141 ft
09:06 Wind:337º@006 Knots Heading: 272º Ground Speed: 463 Knots Altitude 36105 ft
09:21 Wind:252º@008 Knots Heading: 277º Ground Speed: 457 Knots Altitude 36082 ft
09:31 TOD
09:31 Fuel Weight: 45676 Lb
09:36 Wind:219º@027 Knots Heading: 286º Ground Speed: 461 Knots Altitude 33093 ft
09:51 Wind:228º@028 Knots Heading: 067º Ground Speed: 304 Knots Altitude 13599 ft
09:57 Flaps:1 at 221 Knots
10:00 Flaps:2 at 209 Knots
10:05 Flaps:3 at 193 Knots
10:05 Flaps:4 at 194 Knots
10:05 Gear Down: 193 Knots
10:05 Flaps:5 at 192 Knots
10:05 Gear Up: 189 Knots
10:05 Gear Down: 188 Knots
10:05 Flaps:6 at 187 Knots
10:06 Wind:188º@009 Knots Heading: 303º Ground Speed: 197 Knots Altitude 2657 ft
10:06 Flaps:5 at 167 Knots
10:06 Flaps:6 at 161 Knots
10:08 TouchDown:Rate -208 ft/min Speed: 137 Knots
10:08 VATSIM:LEZG 310930Z VRB02KT 9999 FEW050 25/19 Q1016
10:08 Land
10:08 Wind:114º@005 Knots
10:08 Heading: 299º
10:08 Flight Duration: 04:02
10:08 Landing Weight: 184201 Lbs
10:08 POS N41º 39´ 46´´ W001º 01´ 32´´
10:10 Parking brakes on
10:10 Block to Block Duration: 04:07
10:10 Final Fuel: 41457 Lbls
10:10 Spent Fuel: 33633 Lbls
10:10 Flight Length: 1809 NM
10:10 TOD Land Length: 195 NM

Exportar CSV

Powered by Drupal - Modified by Danger4k